sensor_id;sensor_type;location;lat;lon;timestamp;pressure;altitude;pressure_sealevel;temperature;humidity
54910;BME280;63189;51.240;9.964;2023-06-01T00:01:29;98338.63;;;14.22;68.21
54910;BME280;63189;51.240;9.964;2023-06-01T00:03:59;98346.44;;;14.23;68.02
54910;BME280;63189;51.240;9.964;2023-06-01T00:06:25;98341.13;;;14.25;68.28
54910;BME280;63189;51.240;9.964;2023-06-01T00:08:56;98340.09;;;14.29;68.84
54910;BME280;63189;51.240;9.964;2023-06-01T00:11:22;98337.66;;;14.24;68.86
54910;BME280;63189;51.240;9.964;2023-06-01T00:13:48;98346.44;;;14.23;69.28
54910;BME280;63189;51.240;9.964;2023-06-01T00:16:15;98344.03;;;14.17;69.34
54910;BME280;63189;51.240;9.964;2023-06-01T00:18:40;98348.63;;;14.12;69.68
54910;BME280;63189;51.240;9.964;2023-06-01T00:21:06;98339.09;;;14.09;69.55
54910;BME280;63189;51.240;9.964;2023-06-01T00:23:31;98344.41;;;14.08;69.37
54910;BME280;63189;51.240;9.964;2023-06-01T00:25:58;98345.41;;;14.04;69.65
54910;BME280;63189;51.240;9.964;2023-06-01T00:28:23;98337.84;;;13.96;70.31
54910;BME280;63189;51.240;9.964;2023-06-01T00:30:48;98339.69;;;13.94;70.14
54910;BME280;63189;51.240;9.964;2023-06-01T00:33:14;98343.22;;;13.93;70.80
54910;BME280;63189;51.240;9.964;2023-06-01T00:35:39;98340.78;;;13.89;71.07
54910;BME280;63189;51.240;9.964;2023-06-01T00:38:04;98336.59;;;13.83;71.53
54910;BME280;63189;51.240;9.964;2023-06-01T00:40:32;98336.84;;;13.77;71.97
54910;BME280;63189;51.240;9.964;2023-06-01T00:42:57;98331.75;;;13.72;71.85
54910;BME280;63189;51.240;9.964;2023-06-01T00:45:22;98330.06;;;13.71;72.23
54910;BME280;63189;51.240;9.964;2023-06-01T00:47:48;98339.75;;;13.69;72.43
54910;BME280;63189;51.240;9.964;2023-06-01T00:50:13;98330.25;;;13.67;73.04
54910;BME280;63189;51.240;9.964;2023-06-01T00:52:40;98328.63;;;13.63;73.31
54910;BME280;63189;51.240;9.964;2023-06-01T00:55:06;98327.16;;;13.55;73.51
54910;BME280;63189;51.240;9.964;2023-06-01T00:57:33;98330.00;;;13.49;74.36
54910;BME280;63189;51.240;9.964;2023-06-01T00:59:58;98331.09;;;13.42;74.92
54910;BME280;63189;51.240;9.964;2023-06-01T01:02:24;98333.06;;;13.37;75.07
54910;BME280;63189;51.240;9.964;2023-06-01T01:04:49;98332.28;;;13.34;74.77
54910;BME280;63189;51.240;9.964;2023-06-01T01:09:59;98327.28;;;13.27;76.85
54910;BME280;63189;51.240;9.964;2023-06-01T01:15:04;98328.25;;;13.25;76.01
54910;BME280;63189;51.240;9.964;2023-06-01T01:17:36;98323.88;;;13.25;77.04
54910;BME280;63189;51.240;9.964;2023-06-01T01:20:10;98322.25;;;13.21;77.56
54910;BME280;63189;51.240;9.964;2023-06-01T01:30:46;98319.69;;;13.20;77.92
54910;BME280;63189;51.240;9.964;2023-06-01T01:33:12;98318.06;;;13.16;77.85
54910;BME280;63189;51.240;9.964;2023-06-01T01:35:38;98319.03;;;13.13;78.19
54910;BME280;63189;51.240;9.964;2023-06-01T01:38:06;98313.94;;;13.09;79.10
54910;BME280;63189;51.240;9.964;2023-06-01T01:40:31;98314.84;;;13.08;79.02
54910;BME280;63189;51.240;9.964;2023-06-01T01:42:58;98314.84;;;13.08;79.29
54910;BME280;63189;51.240;9.964;2023-06-01T01:45:25;98308.81;;;13.06;79.68
54910;BME280;63189;51.240;9.964;2023-06-01T01:47:58;98305.44;;;13.02;80.78
54910;BME280;63189;51.240;9.964;2023-06-01T01:50:36;98305.50;;;13.00;80.43
54910;BME280;63189;51.240;9.964;2023-06-01T01:53:05;98304.69;;;12.98;80.61
54910;BME280;63189;51.240;9.964;2023-06-01T01:55:33;98303.19;;;12.91;80.78
54910;BME280;63189;51.240;9.964;2023-06-01T01:58:01;98301.59;;;12.87;81.04
54910;BME280;63189;51.240;9.964;2023-06-01T02:00:28;98296.63;;;12.80;81.26
54910;BME280;63189;51.240;9.964;2023-06-01T02:02:53;98297.53;;;12.79;80.76
54910;BME280;63189;51.240;9.964;2023-06-01T02:05:18;98292.34;;;12.77;80.77
54910;BME280;63189;51.240;9.964;2023-06-01T02:07:45;98290.69;;;12.75;80.71
54910;BME280;63189;51.240;9.964;2023-06-01T02:10:10;98285.59;;;12.71;80.54
54910;BME280;63189;51.240;9.964;2023-06-01T02:12:36;98284.66;;;12.73;80.95
54910;BME280;63189;51.240;9.964;2023-06-01T02:15:01;98276.09;;;12.67;80.82
54910;BME280;63189;51.240;9.964;2023-06-01T02:17:26;98283.09;;;12.67;80.75
54910;BME280;63189;51.240;9.964;2023-06-01T02:19:52;98277.97;;;12.64;80.79
54910;BME280;63189;51.240;9.964;2023-06-01T02:22:18;98277.19;;;12.62;80.70
54910;BME280;63189;51.240;9.964;2023-06-01T02:24:43;98279.88;;;12.59;81.37
54910;BME280;63189;51.240;9.964;2023-06-01T02:27:08;98277.38;;;12.56;81.32
54910;BME280;63189;51.240;9.964;2023-06-01T02:29:34;98273.16;;;12.52;81.79
54910;BME280;63189;51.240;9.964;2023-06-01T02:31:59;98278.47;;;12.49;82.45
54910;BME280;63189;51.240;9.964;2023-06-01T02:34:24;98272.56;;;12.43;82.88
54910;BME280;63189;51.240;9.964;2023-06-01T02:36:52;98272.69;;;12.39;83.38
54910;BME280;63189;51.240;9.964;2023-06-01T02:39:21;98278.88;;;12.36;83.07
54910;BME280;63189;51.240;9.964;2023-06-01T02:41:46;98272.00;;;12.34;83.73
54910;BME280;63189;51.240;9.964;2023-06-01T02:44:12;98277.28;;;12.32;83.80
54910;BME280;63189;51.240;9.964;2023-06-01T02:46:37;98277.34;;;12.29;83.85
54910;BME280;63189;51.240;9.964;2023-06-01T02:49:02;98277.34;;;12.29;84.15
54910;BME280;63189;51.240;9.964;2023-06-01T02:51:29;98279.13;;;12.29;84.30
54910;BME280;63189;51.240;9.964;2023-06-01T02:53:56;98266.22;;;12.24;85.26
54910;BME280;63189;51.240;9.964;2023-06-01T02:56:21;98267.13;;;12.23;85.08
54910;BME280;63189;51.240;9.964;2023-06-01T02:58:46;98268.06;;;12.21;85.53
54910;BME280;63189;51.240;9.964;2023-06-01T03:01:11;98268.97;;;12.20;85.32
54910;BME280;63189;51.240;9.964;2023-06-01T03:03:38;98267.22;;;12.20;85.86
54910;BME280;63189;51.240;9.964;2023-06-01T03:06:04;98269.84;;;12.20;86.12
54910;BME280;63189;51.240;9.964;2023-06-01T03:08:31;98268.97;;;12.20;86.12
54910;BME280;63189;51.240;9.964;2023-06-01T03:10:56;98268.06;;;12.21;87.00
54910;BME280;63189;51.240;9.964;2023-06-01T03:13:21;98267.25;;;12.19;88.58
54910;BME280;63189;51.240;9.964;2023-06-01T03:15:47;98269.00;;;12.18;87.76
54910;BME280;63189;51.240;9.964;2023-06-01T03:18:12;98269.00;;;12.18;88.40
54910;BME280;63189;51.240;9.964;2023-06-01T03:20:39;98270.75;;;12.18;89.82
54910;BME280;63189;51.240;9.964;2023-06-01T03:23:04;98274.22;;;12.18;89.67
54910;BME280;63189;51.240;9.964;2023-06-01T03:25:29;98279.47;;;12.18;89.64
54910;BME280;63189;51.240;9.964;2023-06-01T03:27:55;98269.16;;;12.13;89.60
54910;BME280;63189;51.240;9.964;2023-06-01T03:30:20;98273.44;;;12.16;90.88
54910;BME280;63189;51.240;9.964;2023-06-01T03:32:46;98282.19;;;12.15;91.22
54910;BME280;63189;51.240;9.964;2023-06-01T03:35:12;98280.41;;;12.16;90.77
54910;BME280;63189;51.240;9.964;2023-06-01T03:37:39;98279.56;;;12.15;91.13
54910;BME280;63189;51.240;9.964;2023-06-01T03:40:06;98284.03;;;12.11;93.03
54910;BME280;63189;51.240;9.964;2023-06-01T03:42:39;98278.03;;;12.08;91.57
54910;BME280;63189;51.240;9.964;2023-06-01T03:45:08;98279.69;;;12.12;92.81
54910;BME280;63189;51.240;9.964;2023-06-01T03:47:34;98274.56;;;12.09;92.56
54910;BME280;63189;51.240;9.964;2023-06-01T03:50:00;98276.28;;;12.08;92.29
54910;BME280;63189;51.240;9.964;2023-06-01T03:52:26;98274.50;;;12.10;92.97
54910;BME280;63189;51.240;9.964;2023-06-01T03:54:52;98275.41;;;12.09;92.72
54910;BME280;63189;51.240;9.964;2023-06-01T03:57:18;98275.44;;;12.08;92.95
54910;BME280;63189;51.240;9.964;2023-06-01T03:59:43;98272.00;;;12.06;93.27
54910;BME280;63189;51.240;9.964;2023-06-01T04:02:10;98267.69;;;12.05;93.39
54910;BME280;63189;51.240;9.964;2023-06-01T04:04:59;98253.94;;;12.00;94.42
54910;BME280;63189;51.240;9.964;2023-06-01T04:07:25;98274.56;;;12.09;93.07
54910;BME280;63189;51.240;9.964;2023-06-01T04:09:51;98267.59;;;12.08;93.71
54910;BME280;63189;51.240;9.964;2023-06-01T04:12:16;98272.00;;;12.06;94.35
54910;BME280;63189;51.240;9.964;2023-06-01T04:14:42;98267.69;;;12.05;94.72
54910;BME280;63189;51.240;9.964;2023-06-01T04:17:07;98276.34;;;12.07;95.00
54910;BME280;63189;51.240;9.964;2023-06-01T04:19:34;98279.84;;;12.06;95.47
54910;BME280;63189;51.240;9.964;2023-06-01T04:21:59;98275.53;;;12.05;95.14
54910;BME280;63189;51.240;9.964;2023-06-01T04:24:25;98273.78;;;12.05;95.29
54910;BME280;63189;51.240;9.964;2023-06-01T04:26:51;98274.63;;;12.06;96.09
54910;BME280;63189;51.240;9.964;2023-06-01T04:29:17;98271.06;;;12.08;95.14
54910;BME280;63189;51.240;9.964;2023-06-01T04:31:47;98261.47;;;12.09;96.13
54910;BME280;63189;51.240;9.964;2023-06-01T04:34:14;98263.22;;;12.08;95.76
54910;BME280;63189;51.240;9.964;2023-06-01T04:36:39;98266.66;;;12.10;95.91
54910;BME280;63189;51.240;9.964;2023-06-01T04:39:08;98262.28;;;12.11;97.12
54910;BME280;63189;51.240;9.964;2023-06-01T04:41:34;98265.69;;;12.13;96.67
54910;BME280;63189;51.240;9.964;2023-06-01T04:44:03;98269.13;;;12.15;96.90
54910;BME280;63189;51.240;9.964;2023-06-01T04:46:33;98264.78;;;12.14;97.48
54910;BME280;63189;51.240;9.964;2023-06-01T04:48:58;98270.72;;;12.19;96.84
54910;BME280;63189;51.240;9.964;2023-06-01T04:51:26;98264.63;;;12.19;97.71
54910;BME280;63189;51.240;9.964;2023-06-01T04:53:53;98261.94;;;12.22;98.05
54910;BME280;63189;51.240;9.964;2023-06-01T04:56:20;98266.91;;;12.29;98.02
54910;BME280;63189;51.240;9.964;2023-06-01T04:58:53;98264.03;;;12.37;97.51
54910;BME280;63189;51.240;9.964;2023-06-01T05:01:21;98259.31;;;12.48;97.00
54910;BME280;63189;51.240;9.964;2023-06-01T05:03:50;98258.03;;;12.60;96.41
54910;BME280;63189;51.240;9.964;2023-06-01T05:06:17;98258.44;;;12.74;96.06
54910;BME280;63189;51.240;9.964;2023-06-01T05:08:43;98256.19;;;12.88;95.38
54910;BME280;63189;51.240;9.964;2023-06-01T05:11:09;98258.31;;;13.02;94.33
54910;BME280;63189;51.240;9.964;2023-06-01T05:13:38;98253.41;;;13.18;93.51
54910;BME280;63189;51.240;9.964;2023-06-01T05:16:05;98253.13;;;13.27;93.04
54910;BME280;63189;51.240;9.964;2023-06-01T05:18:32;98249.91;;;13.42;91.87
54910;BME280;63189;51.240;9.964;2023-06-01T05:20:57;98249.50;;;13.53;91.05
54910;BME280;63189;51.240;9.964;2023-06-01T05:23:24;98253.56;;;13.62;90.77
54910;BME280;63189;51.240;9.964;2023-06-01T05:25:50;98259.19;;;13.74;89.81
54910;BME280;63189;51.240;9.964;2023-06-01T05:28:15;98262.22;;;13.87;89.20
54910;BME280;63189;51.240;9.964;2023-06-01T05:30:41;98246.06;;;13.98;88.78
54910;BME280;63189;51.240;9.964;2023-06-01T05:33:06;98253.50;;;14.08;88.21
54910;BME280;63189;51.240;9.964;2023-06-01T05:35:31;98251.03;;;14.26;87.23
54910;BME280;63189;51.240;9.964;2023-06-01T05:37:57;98248.72;;;14.40;86.44
54910;BME280;63189;51.240;9.964;2023-06-01T05:40:22;98244.69;;;14.53;85.40
54910;BME280;63189;51.240;9.964;2023-06-01T05:42:47;98252.03;;;14.65;84.99
54910;BME280;63189;51.240;9.964;2023-06-01T05:45:13;98250.88;;;14.72;84.26
54910;BME280;63189;51.240;9.964;2023-06-01T05:47:38;98248.03;;;14.77;84.34
54910;BME280;63189;51.240;9.964;2023-06-01T05:50:04;98256.06;;;14.94;83.58
54910;BME280;63189;51.240;9.964;2023-06-01T05:52:30;98258.69;;;15.15;82.62
54910;BME280;63189;51.240;9.964;2023-06-01T05:54:55;98257.13;;;15.29;81.37
54910;BME280;63189;51.240;9.964;2023-06-01T05:57:21;98242.09;;;15.52;80.61
54910;BME280;63189;51.240;9.964;2023-06-01T05:59:46;98246.47;;;15.72;79.29
54910;BME280;63189;51.240;9.964;2023-06-01T06:02:13;98248.59;;;15.82;78.40
54910;BME280;63189;51.240;9.964;2023-06-01T06:04:39;98255.09;;;15.75;78.07
54910;BME280;63189;51.240;9.964;2023-06-01T06:07:04;98255.44;;;15.86;77.67
54910;BME280;63189;51.240;9.964;2023-06-01T06:09:30;98242.78;;;15.95;77.17
54910;BME280;63189;51.240;9.964;2023-06-01T06:11:56;98243.56;;;15.97;76.42
54910;BME280;63189;51.240;9.964;2023-06-01T06:14:21;98244.25;;;16.00;76.08
54910;BME280;63189;51.240;9.964;2023-06-01T06:16:46;98244.91;;;16.05;76.50
54910;BME280;63189;51.240;9.964;2023-06-01T06:19:12;98258.00;;;16.24;75.63
54910;BME280;63189;51.240;9.964;2023-06-01T06:21:37;98249.06;;;16.45;75.12
54910;BME280;63189;51.240;9.964;2023-06-01T06:24:03;98250.63;;;16.67;74.16
54910;BME280;63189;51.240;9.964;2023-06-01T06:26:28;98241.44;;;16.93;73.57
54910;BME280;63189;51.240;9.964;2023-06-01T06:28:54;98249.56;;;17.06;72.59
54910;BME280;63189;51.240;9.964;2023-06-01T06:31:20;98238.59;;;16.80;71.99
54910;BME280;63189;51.240;9.964;2023-06-01T06:33:46;98234.06;;;16.65;72.27
54910;BME280;63189;51.240;9.964;2023-06-01T06:36:11;98245.34;;;16.67;72.22
54910;BME280;63189;51.240;9.964;2023-06-01T06:38:36;98256.06;;;16.47;72.38
54910;BME280;63189;51.240;9.964;2023-06-01T06:41:02;98256.41;;;16.39;72.57
54910;BME280;63189;51.240;9.964;2023-06-01T06:43:27;98256.19;;;16.43;73.18
54910;BME280;63189;51.240;9.964;2023-06-01T06:45:52;98258.28;;;16.37;72.80
54910;BME280;63189;51.240;9.964;2023-06-01T06:48:18;98265.84;;;16.26;73.31
54910;BME280;63189;51.240;9.964;2023-06-01T06:50:43;98267.16;;;15.98;73.49
54910;BME280;63189;51.240;9.964;2023-06-01T06:53:10;98275.25;;;15.94;74.54
54910;BME280;63189;51.240;9.964;2023-06-01T06:55:36;98271.28;;;15.85;74.52
54910;BME280;63189;51.240;9.964;2023-06-01T06:58:01;98281.94;;;15.82;75.48
54910;BME280;63189;51.240;9.964;2023-06-01T07:00:26;98278.81;;;15.74;75.02
54910;BME280;63189;51.240;9.964;2023-06-01T07:02:52;98273.47;;;15.94;75.51
54910;BME280;63189;51.240;9.964;2023-06-01T07:05:17;98270.56;;;15.81;74.50
54910;BME280;63189;51.240;9.964;2023-06-01T07:07:43;98272.16;;;15.85;74.95
54910;BME280;63189;51.240;9.964;2023-06-01T07:10:08;98274.34;;;15.76;74.97
54910;BME280;63189;51.240;9.964;2023-06-01T07:12:34;98267.81;;;15.45;75.93
54910;BME280;63189;51.240;9.964;2023-06-01T07:15:01;98282.44;;;15.32;77.04
54910;BME280;63189;51.240;9.964;2023-06-01T07:17:27;98282.69;;;15.26;77.38
54910;BME280;63189;51.240;9.964;2023-06-01T07:19:54;98278.88;;;15.33;76.91
54910;BME280;63189;51.240;9.964;2023-06-01T07:22:19;98276.00;;;15.19;77.48
54910;BME280;63189;51.240;9.964;2023-06-01T07:24:46;98276.44;;;15.28;77.11
54910;BME280;63189;51.240;9.964;2023-06-01T07:27:12;98275.78;;;15.44;76.68
54910;BME280;63189;51.240;9.964;2023-06-01T07:29:38;98267.59;;;15.50;76.72
54910;BME280;63189;51.240;9.964;2023-06-01T07:32:05;98286.50;;;15.58;76.75
54910;BME280;63189;51.240;9.964;2023-06-01T07:34:31;98268.59;;;15.68;76.29
54910;BME280;63189;51.240;9.964;2023-06-01T07:37:01;98266.50;;;15.93;75.33
54910;BME280;63189;51.240;9.964;2023-06-01T07:39:48;98271.59;;;16.15;75.44
54910;BME280;63189;51.240;9.964;2023-06-01T07:42:13;98266.53;;;16.29;73.30
54910;BME280;63189;51.240;9.964;2023-06-01T07:44:40;98267.19;;;16.52;73.08
54910;BME280;63189;51.240;9.964;2023-06-01T07:47:05;98269.38;;;16.61;72.75
54910;BME280;63189;51.240;9.964;2023-06-01T07:49:31;98259.88;;;16.76;72.91
54910;BME280;63189;51.240;9.964;2023-06-01T07:51:56;98265.81;;;17.14;72.41
54910;BME280;63189;51.240;9.964;2023-06-01T07:54:23;98269.91;;;17.19;70.26
54910;BME280;63189;51.240;9.964;2023-06-01T07:56:49;98265.06;;;17.45;71.33
54910;BME280;63189;51.240;9.964;2023-06-01T07:59:15;98270.13;;;17.65;68.84
54910;BME280;63189;51.240;9.964;2023-06-01T08:01:40;98262.09;;;17.84;68.81
54910;BME280;63189;51.240;9.964;2023-06-01T08:04:06;98254.25;;;17.98;67.79
54910;BME280;63189;51.240;9.964;2023-06-01T08:06:32;98255.72;;;18.04;66.65
54910;BME280;63189;51.240;9.964;2023-06-01T08:09:01;98251.03;;;17.93;68.43
54910;BME280;63189;51.240;9.964;2023-06-01T08:11:26;98254.44;;;17.95;69.12
54910;BME280;63189;51.240;9.964;2023-06-01T08:13:52;98252.66;;;17.96;68.21
54910;BME280;63189;51.240;9.964;2023-06-01T08:16:17;98239.94;;;18.02;68.52
54910;BME280;63189;51.240;9.964;2023-06-01T08:18:42;98251.44;;;18.17;66.70
54910;BME280;63189;51.240;9.964;2023-06-01T08:21:08;98257.28;;;18.38;66.79
54910;BME280;63189;51.240;9.964;2023-06-01T08:23:34;98255.06;;;18.46;66.26
54910;BME280;63189;51.240;9.964;2023-06-01T08:26:00;98253.94;;;18.50;66.58
54910;BME280;63189;51.240;9.964;2023-06-01T08:28:25;98248.56;;;18.67;65.68
54910;BME280;63189;51.240;9.964;2023-06-01T08:30:51;98253.03;;;18.81;65.47
54910;BME280;63189;51.240;9.964;2023-06-01T08:33:22;98246.09;;;18.94;65.85
54910;BME280;63189;51.240;9.964;2023-06-01T08:35:54;98250.16;;;19.14;63.27
54910;BME280;63189;51.240;9.964;2023-06-01T08:38:25;98234.69;;;19.37;63.29
54910;BME280;63189;51.240;9.964;2023-06-01T08:40:59;98212.44;;;19.41;63.93
54910;BME280;63189;51.240;9.964;2023-06-01T08:51:00;98233.03;;;19.64;61.61
54910;BME280;63189;51.240;9.964;2023-06-01T08:53:28;98228.69;;;19.63;62.68
54910;BME280;63189;51.240;9.964;2023-06-01T08:56:22;98206.19;;;19.56;61.88
54910;BME280;63189;51.240;9.964;2023-06-01T08:58:51;98229.13;;;20.11;62.28
54910;BME280;63189;51.240;9.964;2023-06-01T09:01:18;98227.19;;;20.27;61.63
54910;BME280;63189;51.240;9.964;2023-06-01T09:03:53;98222.03;;;20.38;60.78
54910;BME280;63189;51.240;9.964;2023-06-01T09:06:28;98227.25;;;20.67;59.96
54910;BME280;63189;51.240;9.964;2023-06-01T09:08:53;98215.59;;;20.82;61.24
54910;BME280;63189;51.240;9.964;2023-06-01T09:11:21;98205.97;;;20.81;57.88
54910;BME280;63189;51.240;9.964;2023-06-01T09:14:23;98214.13;;;21.03;58.53
54910;BME280;63189;51.240;9.964;2023-06-01T09:16:50;98204.69;;;21.25;58.21
54910;BME280;63189;51.240;9.964;2023-06-01T09:19:16;98201.00;;;21.40;57.10
54910;BME280;63189;51.240;9.964;2023-06-01T09:22:02;98203.56;;;21.29;56.05
54910;BME280;63189;51.240;9.964;2023-06-01T09:24:27;98209.47;;;21.45;57.30
54910;BME280;63189;51.240;9.964;2023-06-01T09:26:58;98201.94;;;21.52;59.44
54910;BME280;63189;51.240;9.964;2023-06-01T09:29:25;98201.28;;;21.61;56.68
54910;BME280;63189;51.240;9.964;2023-06-01T09:31:51;98196.28;;;21.56;55.05
54910;BME280;63189;51.240;9.964;2023-06-01T09:34:21;98201.09;;;21.51;53.20
54910;BME280;63189;51.240;9.964;2023-06-01T09:36:49;98190.16;;;21.56;53.61
54910;BME280;63189;51.240;9.964;2023-06-01T09:39:17;98203.28;;;21.70;53.84
54910;BME280;63189;51.240;9.964;2023-06-01T09:41:52;98201.16;;;21.75;51.54
54910;BME280;63189;51.240;9.964;2023-06-01T09:44:29;98195.22;;;21.72;51.52
54910;BME280;63189;51.240;9.964;2023-06-01T09:49:31;98199.44;;;21.74;52.71
54910;BME280;63189;51.240;9.964;2023-06-01T09:52:15;98182.38;;;21.78;56.20
54910;BME280;63189;51.240;9.964;2023-06-01T09:54:51;98179.19;;;21.97;52.61
54910;BME280;63189;51.240;9.964;2023-06-01T09:57:25;98188.13;;;21.96;51.95
54910;BME280;63189;51.240;9.964;2023-06-01T09:59:50;98183.53;;;21.98;52.19
54910;BME280;63189;51.240;9.964;2023-06-01T10:02:23;98183.31;;;22.14;51.73
54910;BME280;63189;51.240;9.964;2023-06-01T10:04:51;98187.31;;;22.19;49.18
54910;BME280;63189;51.240;9.964;2023-06-01T10:07:18;98176.31;;;22.13;48.19
54910;BME280;63189;51.240;9.964;2023-06-01T10:09:58;98185.63;;;22.18;48.36
54910;BME280;63189;51.240;9.964;2023-06-01T10:12:24;98187.53;;;22.16;47.75
54910;BME280;63189;51.240;9.964;2023-06-01T10:14:57;98183.75;;;22.08;44.96
54910;BME280;63189;51.240;9.964;2023-06-01T10:17:22;98187.44;;;22.05;45.28
54910;BME280;63189;51.240;9.964;2023-06-01T10:19:51;98189.31;;;21.92;43.40
54910;BME280;63189;51.240;9.964;2023-06-01T10:22:22;98190.22;;;21.80;43.15
54910;BME280;63189;51.240;9.964;2023-06-01T10:24:55;98181.34;;;21.92;45.12
54910;BME280;63189;51.240;9.964;2023-06-01T10:27:52;98164.84;;;21.76;42.45
54910;BME280;63189;51.240;9.964;2023-06-01T10:30:28;98176.56;;;21.60;43.73
54910;BME280;63189;51.240;9.964;2023-06-01T10:32:54;98159.75;;;21.73;45.70
54910;BME280;63189;51.240;9.964;2023-06-01T10:40:36;98173.28;;;21.94;44.17
54910;BME280;63189;51.240;9.964;2023-06-01T10:43:01;98166.81;;;21.85;41.93
54910;BME280;63189;51.240;9.964;2023-06-01T10:47:59;98155.66;;;21.69;40.30
54910;BME280;63189;51.240;9.964;2023-06-01T10:50:25;98160.75;;;21.46;39.88
54910;BME280;63189;51.240;9.964;2023-06-01T10:52:54;98159.41;;;21.41;42.15
54910;BME280;63189;51.240;9.964;2023-06-01T10:57:46;98155.44;;;21.59;41.10
54910;BME280;63189;51.240;9.964;2023-06-01T11:00:25;98161.03;;;21.67;41.31
54910;BME280;63189;51.240;9.964;2023-06-01T11:03:02;98155.78;;;21.91;44.81
54910;BME280;63189;51.240;9.964;2023-06-01T11:05:43;98150.28;;;22.05;43.01
54910;BME280;63189;51.240;9.964;2023-06-01T11:13:34;98160.72;;;21.96;42.58
54910;BME280;63189;51.240;9.964;2023-06-01T11:18:45;98150.94;;;21.96;42.75
54910;BME280;63189;51.240;9.964;2023-06-01T11:21:16;98138.72;;;22.06;42.79
54910;BME280;63189;51.240;9.964;2023-06-01T11:23:43;98146.00;;;22.15;44.16
54910;BME280;63189;51.240;9.964;2023-06-01T11:26:14;98142.06;;;22.21;43.55
54910;BME280;63189;51.240;9.964;2023-06-01T11:28:41;98148.03;;;22.36;44.55
54910;BME280;63189;51.240;9.964;2023-06-01T11:31:10;98150.69;;;22.36;42.53
54910;BME280;63189;51.240;9.964;2023-06-01T11:33:41;98141.19;;;22.44;43.71
54910;BME280;63189;51.240;9.964;2023-06-01T11:36:13;98140.34;;;22.44;43.97
54910;BME280;63189;51.240;9.964;2023-06-01T11:38:42;98133.97;;;22.23;43.51
54910;BME280;63189;51.240;9.964;2023-06-01T11:41:08;98130.97;;;22.03;42.70
54910;BME280;63189;51.240;9.964;2023-06-01T11:43:34;98127.34;;;22.04;43.36
54910;BME280;63189;51.240;9.964;2023-06-01T11:46:09;98140.94;;;22.12;45.14
54910;BME280;63189;51.240;9.964;2023-06-01T11:48:38;98133.25;;;22.21;46.51
54910;BME280;63189;51.240;9.964;2023-06-01T11:51:03;98123.75;;;22.40;44.97
54910;BME280;63189;51.240;9.964;2023-06-01T11:53:30;98115.00;;;22.51;43.98
54910;BME280;63189;51.240;9.964;2023-06-01T11:55:59;98126.56;;;22.50;42.95
54910;BME280;63189;51.240;9.964;2023-06-01T11:58:29;98129.47;;;22.58;43.82
54910;BME280;63189;51.240;9.964;2023-06-01T12:00:56;98123.94;;;22.61;43.88
54910;BME280;63189;51.240;9.964;2023-06-01T12:03:24;98125.75;;;22.61;43.95
54910;BME280;63189;51.240;9.964;2023-06-01T12:05:49;98122.72;;;22.54;44.83
54910;BME280;63189;51.240;9.964;2023-06-01T12:08:23;98121.38;;;22.48;44.10
54910;BME280;63189;51.240;9.964;2023-06-01T12:10:50;98131.41;;;22.45;44.73
54910;BME280;63189;51.240;9.964;2023-06-01T12:13:17;98119.31;;;22.41;45.29
54910;BME280;63189;51.240;9.964;2023-06-01T12:15:43;98117.97;;;22.35;45.05
54910;BME280;63189;51.240;9.964;2023-06-01T12:18:08;98117.38;;;22.43;45.83
54910;BME280;63189;51.240;9.964;2023-06-01T12:20:36;98125.63;;;22.51;46.30
54910;BME280;63189;51.240;9.964;2023-06-01T12:23:14;98121.16;;;22.52;45.91
54910;BME280;63189;51.240;9.964;2023-06-01T12:25:50;98123.44;;;22.56;46.50
54910;BME280;63189;51.240;9.964;2023-06-01T12:28:15;98110.53;;;22.52;45.45
54910;BME280;63189;51.240;9.964;2023-06-01T12:30:44;98108.09;;;22.48;46.10
54910;BME280;63189;51.240;9.964;2023-06-01T12:33:33;98110.41;;;22.53;47.05
54910;BME280;63189;51.240;9.964;2023-06-01T12:36:03;98102.88;;;22.47;47.44
54910;BME280;63189;51.240;9.964;2023-06-01T12:38:53;98105.22;;;22.52;47.69
54910;BME280;63189;51.240;9.964;2023-06-01T12:41:21;98096.50;;;22.50;48.65
54910;BME280;63189;51.240;9.964;2023-06-01T12:43:48;98096.50;;;22.50;48.81
54910;BME280;63189;51.240;9.964;2023-06-01T12:46:32;98094.19;;;22.45;49.05
54910;BME280;63189;51.240;9.964;2023-06-01T12:49:15;98099.38;;;22.35;49.40
54910;BME280;63189;51.240;9.964;2023-06-01T12:51:44;98107.31;;;22.24;49.63
54910;BME280;63189;51.240;9.964;2023-06-01T12:54:09;98097.41;;;22.02;49.28
54910;BME280;63189;51.240;9.964;2023-06-01T12:56:36;98102.72;;;22.02;51.13
54910;BME280;63189;51.240;9.964;2023-06-01T12:59:02;98098.38;;;22.01;50.90
54910;BME280;63189;51.240;9.964;2023-06-01T13:01:28;98091.53;;;21.86;50.64
54910;BME280;63189;51.240;9.964;2023-06-01T13:03:55;98097.81;;;21.85;51.03
54910;BME280;63189;51.240;9.964;2023-06-01T13:06:21;98103.28;;;21.71;51.18
54910;BME280;63189;51.240;9.964;2023-06-01T13:08:46;98090.81;;;21.60;51.36
54910;BME280;63189;51.240;9.964;2023-06-01T13:11:12;98098.66;;;21.61;51.71
54910;BME280;63189;51.240;9.964;2023-06-01T13:13:37;98106.94;;;21.57;51.72
54910;BME280;63189;51.240;9.964;2023-06-01T13:16:03;98106.56;;;21.50;52.32
54910;BME280;63189;51.240;9.964;2023-06-01T13:18:29;98103.66;;;21.53;52.40
54910;BME280;63189;51.240;9.964;2023-06-01T13:20:55;98097.41;;;21.54;52.90
54910;BME280;63189;51.240;9.964;2023-06-01T13:23:21;98095.31;;;21.47;52.24
54910;BME280;63189;51.240;9.964;2023-06-01T13:25:47;98096.59;;;21.41;52.45
54910;BME280;63189;51.240;9.964;2023-06-01T13:28:12;98091.28;;;21.41;53.34
54910;BME280;63189;51.240;9.964;2023-06-01T13:30:39;98090.03;;;21.34;52.87
54910;BME280;63189;51.240;9.964;2023-06-01T13:33:05;98093.72;;;21.44;53.10
54910;BME280;63189;51.240;9.964;2023-06-01T13:35:31;98077.47;;;21.49;52.42
54910;BME280;63189;51.240;9.964;2023-06-01T13:37:56;98091.78;;;21.46;52.37
54910;BME280;63189;51.240;9.964;2023-06-01T13:40:22;98080.63;;;21.30;51.48
54910;BME280;63189;51.240;9.964;2023-06-01T13:42:49;98078.81;;;21.30;52.22
54910;BME280;63189;51.240;9.964;2023-06-01T13:45:15;98081.47;;;21.30;53.68